Wind From: 11-12-2017 12:03 Until: 12-12-2017 06:00 warning for: Wind Level: Orange info button

Power and phone distribution networks may be disrupted for relatively long periods., Roofs and chimneys can be damaged. , Tree branches may break. , Vehicles can be deported. , Traffic may be disrupted, particularly on secondary roads in forest areas. Limit your trips. , Limit your speed in highway driving, especially if you drive a vehicle or hitch sensitive to wind. , Do not go for walks in forests or along the coast., In town, be vigilant against possible falling objects., Do not work on roofs and do not touch any electrical line fallen on the ground., Store or secure sensitive objects to wind or likely to be damaged., Always install power generators outside buildings. 


Meteo18 Weather Cam more information Meteo18 Weather Cam


Thunder radar more information blitzortung!


Rain radar more information rain snow radar


Visit our other weather sites:

Template documentation
and downloads

And another site



Weather Underground History page Text

Daily Summary for August 12, 2017 Units:  Both    English   Metric
« Previous Day
Next Day »
Daily Weekly Monthly Yearly Custom
  High: Low: Average:
Temperature: 68.9 °F /  20.5 °C 52 °F /  11.1 °C 61 °F /  16.1 °C
Dew Point: 58.8 °F /  14.9 °C 50.5 °F /  10.3 °C 54.9 °F /  12.7 °C
Humidity: 96 % 63 % 81 %
Wind Speed: 12 mph /  19.3 km/h - 3.2 mph /  5.2 km/h
Wind Gust: 17 mph /  27.4 km/h - -
Wind:- - SW
Pressure: 30.2 in /  1023.6 hPa 30.2 in /  1021.9 hPa -
Precipitation: 0 in /  0.0 mm    
Historical Graphs
 
 
Tabular Data for August 12, 2017
Time Temperature Dew Point Pressure Wind Wind Speed Wind Gust Humidity Rainfall Rate (Hourly)
00:02 56.5 °F /  13.6 °C 52.7 °F /  11.5 °C 30.2 in /  1022.9 hPa Calm     87 % 0 in /  0.0 mm
00:12 56.1 °F /  13.4 °C 52.7 °F /  11.5 °C 30.2 in /  1022.6 hPa Calm     88 % 0 in /  0.0 mm
00:17 56.1 °F /  13.4 °C 52.7 °F /  11.5 °C 30.2 in /  1022.6 hPa Calm     88 % 0 in /  0.0 mm
00:22 56.1 °F /  13.4 °C 52.7 °F /  11.5 °C 30.2 in /  1022.6 hPa Calm     88 % 0 in /  0.0 mm
00:27 55.9 °F /  13.3 °C 52.5 °F /  11.4 °C 30.2 in /  1022.6 hPa Calm     88 % 0 in /  0.0 mm
00:32 55.8 °F /  13.2 °C 52.3 °F /  11.3 °C 30.2 in /  1022.6 hPa Calm     88 % 0 in /  0.0 mm
00:42 55.4 °F /  13.0 °C 52.2 °F /  11.2 °C 30.2 in /  1022.6 hPa Calm   1 mph /  1.6 km/h 89 % 0 in /  0.0 mm
00:52 55 °F /  12.8 °C 51.8 °F /  11.0 °C 30.2 in /  1022.6 hPa Calm     89 % 0 in /  0.0 mm
01:02 54.9 °F /  12.7 °C 52 °F /  11.1 °C 30.2 in /  1022.6 hPa Calm     90 % 0 in /  0.0 mm
01:12 54.5 °F /  12.5 °C 51.6 °F /  10.9 °C 30.2 in /  1022.6 hPa Calm     90 % 0 in /  0.0 mm
01:22 54.5 °F /  12.5 °C 52 °F /  11.1 °C 30.2 in /  1022.6 hPa Calm     91 % 0 in /  0.0 mm
01:27 54.3 °F /  12.4 °C 51.8 °F /  11.0 °C 30.2 in /  1022.6 hPa Calm     91 % 0 in /  0.0 mm
01:32 54.1 °F /  12.3 °C 51.8 °F /  11.0 °C 30.2 in /  1022.6 hPa Calm     92 % 0 in /  0.0 mm
01:42 54.9 °F /  12.7 °C 52.5 °F /  11.4 °C 30.2 in /  1022.6 hPa Calm   2 mph /  3.2 km/h 92 % 0 in /  0.0 mm
01:47 54.9 °F /  12.7 °C 52.3 °F /  11.3 °C 30.2 in /  1022.6 hPa Calm   2 mph /  3.2 km/h 91 % 0 in /  0.0 mm
01:52 54.9 °F /  12.7 °C 52.3 °F /  11.3 °C 30.2 in /  1022.6 hPa SW 1 mph /  1.6 km/h 2 mph /  3.2 km/h 91 % 0 in /  0.0 mm
02:02 54.7 °F /  12.6 °C 52.2 °F /  11.2 °C 30.2 in /  1022.6 hPa Calm   2 mph /  3.2 km/h 91 % 0 in /  0.0 mm
02:12 54.1 °F /  12.3 °C 51.6 °F /  10.9 °C 30.2 in /  1022.6 hPa Calm   2 mph /  3.2 km/h 91 % 0 in /  0.0 mm
02:17 54.3 °F /  12.4 °C 52 °F /  11.1 °C 30.2 in /  1022.6 hPa Calm   1 mph /  1.6 km/h 92 % 0 in /  0.0 mm
02:22 54.3 °F /  12.4 °C 52 °F /  11.1 °C 30.2 in /  1022.6 hPa NNW 1 mph /  1.6 km/h 1 mph /  1.6 km/h 92 % 0 in /  0.0 mm
02:32 53.8 °F /  12.1 °C 51.4 °F /  10.8 °C 30.2 in /  1022.6 hPa Calm   1 mph /  1.6 km/h 92 % 0 in /  0.0 mm
02:42 53.4 °F /  11.9 °C 51.1 °F /  10.6 °C 30.2 in /  1022.2 hPa Calm     92 % 0 in /  0.0 mm
02:52 53.2 °F /  11.8 °C 51.6 °F /  10.9 °C 30.2 in /  1022.2 hPa Calm     94 % 0 in /  0.0 mm
03:02 53.4 °F /  11.9 °C 51.8 °F /  11.0 °C 30.2 in /  1022.2 hPa Calm     94 % 0 in /  0.0 mm
03:07 53.4 °F /  11.9 °C 51.8 °F /  11.0 °C 30.2 in /  1022.2 hPa Calm     94 % 0 in /  0.0 mm
03:12 53.2 °F /  11.8 °C 51.3 °F /  10.7 °C 30.2 in /  1022.2 hPa Calm     93 % 0 in /  0.0 mm
03:17 53.1 °F /  11.7 °C 51.4 °F /  10.8 °C 30.2 in /  1022.2 hPa Calm     94 % 0 in /  0.0 mm
03:22 53.2 °F /  11.8 °C 51.6 °F /  10.9 °C 30.2 in /  1022.2 hPa Calm     94 % 0 in /  0.0 mm
03:32 53.1 °F /  11.7 °C 51.4 °F /  10.8 °C 30.2 in /  1022.2 hPa Calm   1 mph /  1.6 km/h 94 % 0 in /  0.0 mm
03:42 53.1 °F /  11.7 °C 51.4 °F /  10.8 °C 30.2 in /  1022.2 hPa Calm   1 mph /  1.6 km/h 94 % 0 in /  0.0 mm
03:47 52.9 °F /  11.6 °C 51.3 °F /  10.7 °C 30.2 in /  1022.6 hPa Calm   1 mph /  1.6 km/h 94 % 0 in /  0.0 mm
03:52 52.9 °F /  11.6 °C 51.3 °F /  10.7 °C 30.2 in /  1022.2 hPa South 1 mph /  1.6 km/h 1 mph /  1.6 km/h 94 % 0 in /  0.0 mm
04:02 52.9 °F /  11.6 °C 51.3 °F /  10.7 °C 30.2 in /  1022.2 hPa ESE 2 mph /  3.2 km/h 2 mph /  3.2 km/h 94 % 0 in /  0.0 mm
04:12 52.9 °F /  11.6 °C 51.4 °F /  10.8 °C 30.2 in /  1022.2 hPa Calm   2 mph /  3.2 km/h 95 % 0 in /  0.0 mm
04:17 52.5 °F /  11.4 °C 50.9 °F /  10.5 °C 30.2 in /  1022.2 hPa Calm   2 mph /  3.2 km/h 94 % 0 in /  0.0 mm
04:22 52.5 °F /  11.4 °C 50.9 °F /  10.5 °C 30.2 in /  1022.2 hPa Calm     94 % 0 in /  0.0 mm
04:32 52.2 °F /  11.2 °C 50.7 °F /  10.4 °C 30.2 in /  1022.2 hPa Calm   1 mph /  1.6 km/h 95 % 0 in /  0.0 mm
04:37 52.2 °F /  11.2 °C 50.7 °F /  10.4 °C 30.2 in /  1022.2 hPa Calm     95 % 0 in /  0.0 mm
04:42 52.2 °F /  11.2 °C 50.7 °F /  10.4 °C 30.2 in /  1022.2 hPa Calm   1 mph /  1.6 km/h 95 % 0 in /  0.0 mm
04:47 52.3 °F /  11.3 °C 50.9 °F /  10.5 °C 30.2 in /  1022.2 hPa Calm   1 mph /  1.6 km/h 95 % 0 in /  0.0 mm
04:52 52.3 °F /  11.3 °C 50.9 °F /  10.5 °C 30.2 in /  1022.2 hPa Calm   1 mph /  1.6 km/h 95 % 0 in /  0.0 mm
05:02 52.2 °F /  11.2 °C 50.7 °F /  10.4 °C 30.2 in /  1021.9 hPa Calm     95 % 0 in /  0.0 mm
05:12 52 °F /  11.1 °C 50.5 °F /  10.3 °C 30.2 in /  1021.9 hPa Calm     95 % 0 in /  0.0 mm
05:17 52 °F /  11.1 °C 50.5 °F /  10.3 °C 30.2 in /  1021.9 hPa Calm     95 % 0 in /  0.0 mm
05:27 52 °F /  11.1 °C 50.5 °F /  10.3 °C 30.2 in /  1021.9 hPa Calm     95 % 0 in /  0.0 mm
05:32 52 °F /  11.1 °C 50.5 °F /  10.3 °C 30.2 in /  1021.9 hPa Calm     95 % 0 in /  0.0 mm
05:42 52 °F /  11.1 °C 50.5 °F /  10.3 °C 30.2 in /  1021.9 hPa Calm     95 % 0 in /  0.0 mm
05:52 52.2 °F /  11.2 °C 51.1 °F /  10.6 °C 30.2 in /  1021.9 hPa Calm     96 % 0 in /  0.0 mm
06:02 52.2 °F /  11.2 °C 51.1 °F /  10.6 °C 30.2 in /  1021.9 hPa Calm     96 % 0 in /  0.0 mm
06:12 52.3 °F /  11.3 °C 51.3 °F /  10.7 °C 30.2 in /  1021.9 hPa Calm   2 mph /  3.2 km/h 96 % 0 in /  0.0 mm
06:17 52.3 °F /  11.3 °C 51.3 °F /  10.7 °C 30.2 in /  1021.9 hPa South 1 mph /  1.6 km/h 3 mph /  4.8 km/h 96 % 0 in /  0.0 mm
06:22 52.3 °F /  11.3 °C 51.3 °F /  10.7 °C 30.2 in /  1021.9 hPa Calm   3 mph /  4.8 km/h 96 % 0 in /  0.0 mm
06:27 52.5 °F /  11.4 °C 51.4 °F /  10.8 °C 30.2 in /  1021.9 hPa SSW 3 mph /  4.8 km/h 3 mph /  4.8 km/h 96 % 0 in /  0.0 mm
06:32 52.5 °F /  11.4 °C 51.4 °F /  10.8 °C 30.2 in /  1021.9 hPa SSE 1 mph /  1.6 km/h 3 mph /  4.8 km/h 96 % 0 in /  0.0 mm
06:37 52.5 °F /  11.4 °C 51.4 °F /  10.8 °C 30.2 in /  1021.9 hPa South 2 mph /  3.2 km/h 3 mph /  4.8 km/h 96 % 0 in /  0.0 mm
06:42 52.5 °F /  11.4 °C 51.4 °F /  10.8 °C 30.2 in /  1021.9 hPa SSE 1 mph /  1.6 km/h 4 mph /  6.4 km/h 96 % 0 in /  0.0 mm
06:52 52.5 °F /  11.4 °C 51.4 °F /  10.8 °C 30.2 in /  1021.9 hPa South 2 mph /  3.2 km/h 4 mph /  6.4 km/h 96 % 0 in /  0.0 mm
07:02 52.5 °F /  11.4 °C 51.4 °F /  10.8 °C 30.2 in /  1022.2 hPa SSW 2 mph /  3.2 km/h 5 mph /  8.0 km/h 96 % 0 in /  0.0 mm
07:12 52.5 °F /  11.4 °C 51.4 °F /  10.8 °C 30.2 in /  1022.2 hPa SSE 3 mph /  4.8 km/h 5 mph /  8.0 km/h 96 % 0 in /  0.0 mm
07:17 52.5 °F /  11.4 °C 51.4 °F /  10.8 °C 30.2 in /  1022.2 hPa SSE 2 mph /  3.2 km/h 4 mph /  6.4 km/h 96 % 0 in /  0.0 mm
07:27 52.7 °F /  11.5 °C 51.6 °F /  10.9 °C 30.2 in /  1022.2 hPa SW 2 mph /  3.2 km/h 6 mph /  9.7 km/h 96 % 0 in /  0.0 mm
07:32 52.9 °F /  11.6 °C 51.8 °F /  11.0 °C 30.2 in /  1022.2 hPa South 3 mph /  4.8 km/h 6 mph /  9.7 km/h 96 % 0 in /  0.0 mm
07:37 52.9 °F /  11.6 °C 51.8 °F /  11.0 °C 30.2 in /  1022.2 hPa South 1 mph /  1.6 km/h 6 mph /  9.7 km/h 96 % 0 in /  0.0 mm
07:42 53.1 °F /  11.7 °C 52 °F /  11.1 °C 30.2 in /  1022.2 hPa Calm   6 mph /  9.7 km/h 96 % 0 in /  0.0 mm
07:52 53.2 °F /  11.8 °C 51.8 °F /  11.0 °C 30.2 in /  1022.6 hPa SSW 2 mph /  3.2 km/h 4 mph /  6.4 km/h 95 % 0 in /  0.0 mm
07:57 53.2 °F /  11.8 °C 51.8 °F /  11.0 °C 30.2 in /  1022.6 hPa SSW 4 mph /  6.4 km/h 5 mph /  8.0 km/h 95 % 0 in /  0.0 mm
08:02 53.2 °F /  11.8 °C 51.8 °F /  11.0 °C 30.2 in /  1022.6 hPa SSW 4 mph /  6.4 km/h 5 mph /  8.0 km/h 95 % 0 in /  0.0 mm
08:07 53.2 °F /  11.8 °C 51.8 °F /  11.0 °C 30.2 in /  1022.6 hPa SW 3 mph /  4.8 km/h 5 mph /  8.0 km/h 95 % 0 in /  0.0 mm
08:12 53.4 °F /  11.9 °C 52 °F /  11.1 °C 30.2 in /  1022.6 hPa SSW 3 mph /  4.8 km/h 5 mph /  8.0 km/h 95 % 0 in /  0.0 mm
08:17 53.4 °F /  11.9 °C 52 °F /  11.1 °C 30.2 in /  1022.6 hPa SW 1 mph /  1.6 km/h 6 mph /  9.7 km/h 95 % 0 in /  0.0 mm
08:22 53.6 °F /  12.0 °C 52.2 °F /  11.2 °C 30.2 in /  1022.6 hPa SSW 1 mph /  1.6 km/h 6 mph /  9.7 km/h 95 % 0 in /  0.0 mm
08:32 54 °F /  12.2 °C 52.5 °F /  11.4 °C 30.2 in /  1022.9 hPa West 2 mph /  3.2 km/h 5 mph /  8.0 km/h 95 % 0 in /  0.0 mm
08:37 54.1 °F /  12.3 °C 52.7 °F /  11.5 °C 30.2 in /  1022.9 hPa SSW 4 mph /  6.4 km/h 6 mph /  9.7 km/h 95 % 0 in /  0.0 mm
08:47 54.5 °F /  12.5 °C 52.9 °F /  11.6 °C 30.2 in /  1022.9 hPa WSW 8 mph /  12.9 km/h 12 mph /  19.3 km/h 94 % 0 in /  0.0 mm
08:52 54.7 °F /  12.6 °C 53.1 °F /  11.7 °C 30.2 in /  1022.9 hPa West 7 mph /  11.3 km/h 12 mph /  19.3 km/h 94 % 0 in /  0.0 mm
09:02 54.9 °F /  12.7 °C 52.9 °F /  11.6 °C 30.2 in /  1022.9 hPa WSW 5 mph /  8.0 km/h 12 mph /  19.3 km/h 93 % 0 in /  0.0 mm
09:12 55 °F /  12.8 °C 53.1 °F /  11.7 °C 30.2 in /  1022.9 hPa SSW 5 mph /  8.0 km/h 9 mph /  14.5 km/h 93 % 0 in /  0.0 mm
09:22 55.6 °F /  13.1 °C 53.6 °F /  12.0 °C 30.2 in /  1022.9 hPa WSW 5 mph /  8.0 km/h 9 mph /  14.5 km/h 93 % 0 in /  0.0 mm
09:27 55.9 °F /  13.3 °C 54 °F /  12.2 °C 30.2 in /  1022.9 hPa SW 2 mph /  3.2 km/h 8 mph /  12.9 km/h 93 % 0 in /  0.0 mm
09:32 56.5 °F /  13.6 °C 54.1 °F /  12.3 °C 30.2 in /  1022.9 hPa WSW 3 mph /  4.8 km/h 8 mph /  12.9 km/h 92 % 0 in /  0.0 mm
09:42 56.8 °F /  13.8 °C 54.3 °F /  12.4 °C 30.2 in /  1022.9 hPa SW 9 mph /  14.5 km/h 9 mph /  14.5 km/h 91 % 0 in /  0.0 mm
09:52 57.2 °F /  14.0 °C 54.7 °F /  12.6 °C 30.2 in /  1023.2 hPa West 3 mph /  4.8 km/h 12 mph /  19.3 km/h 91 % 0 in /  0.0 mm
09:57 57.4 °F /  14.1 °C 54.5 °F /  12.5 °C 30.2 in /  1023.2 hPa SW 2 mph /  3.2 km/h 10 mph /  16.1 km/h 90 % 0 in /  0.0 mm
10:07 57.7 °F /  14.3 °C 54.5 °F /  12.5 °C 30.2 in /  1023.2 hPa West 5 mph /  8.0 km/h 11 mph /  17.7 km/h 89 % 0 in /  0.0 mm
10:12 57.9 °F /  14.4 °C 54.7 °F /  12.6 °C 30.2 in /  1023.2 hPa SSW 5 mph /  8.0 km/h 11 mph /  17.7 km/h 89 % 0 in /  0.0 mm
10:22 58.1 °F /  14.5 °C 54.9 °F /  12.7 °C 30.2 in /  1023.2 hPa WSW 5 mph /  8.0 km/h 12 mph /  19.3 km/h 89 % 0 in /  0.0 mm
10:27 58.1 °F /  14.5 °C 54.5 °F /  12.5 °C 30.2 in /  1023.2 hPa SW 3 mph /  4.8 km/h 12 mph /  19.3 km/h 88 % 0 in /  0.0 mm
10:32 58.3 °F /  14.6 °C 54.7 °F /  12.6 °C 30.2 in /  1023.2 hPa WSW 6 mph /  9.7 km/h 12 mph /  19.3 km/h 88 % 0 in /  0.0 mm
10:42 58.6 °F /  14.8 °C 54.9 °F /  12.7 °C 30.2 in /  1023.2 hPa East 7 mph /  11.3 km/h 9 mph /  14.5 km/h 87 % 0 in /  0.0 mm
10:47 58.5 °F /  14.7 °C 54.7 °F /  12.6 °C 30.2 in /  1023.2 hPa SW 11 mph /  17.7 km/h 16 mph /  25.7 km/h 87 % 0 in /  0.0 mm
10:57 58.8 °F /  14.9 °C 55.6 °F /  13.1 °C 30.2 in /  1023.2 hPa SW 7 mph /  11.3 km/h 16 mph /  25.7 km/h 89 % 0 in /  0.0 mm
11:02 59.4 °F /  15.2 °C 55.4 °F /  13.0 °C 30.2 in /  1023.2 hPa SW 7 mph /  11.3 km/h 16 mph /  25.7 km/h 87 % 0 in /  0.0 mm
11:12 60.4 °F /  15.8 °C 56.5 °F /  13.6 °C 30.2 in /  1023.2 hPa WSW 11 mph /  17.7 km/h 11 mph /  17.7 km/h 87 % 0 in /  0.0 mm
11:22 61.5 °F /  16.4 °C 56.7 °F /  13.7 °C 30.2 in /  1023.2 hPa SW 5 mph /  8.0 km/h 14 mph /  22.5 km/h 84 % 0 in /  0.0 mm
11:32 62.2 °F /  16.8 °C 55.9 °F /  13.3 °C 30.2 in /  1023.2 hPa SSW 4 mph /  6.4 km/h 12 mph /  19.3 km/h 80 % 0 in /  0.0 mm
11:42 63.1 °F /  17.3 °C 56.8 °F /  13.8 °C 30.2 in /  1023.2 hPa SW 4 mph /  6.4 km/h 13 mph /  20.9 km/h 80 % 0 in /  0.0 mm
11:47 63.1 °F /  17.3 °C 55.8 °F /  13.2 °C 30.2 in /  1023.2 hPa WSW 10 mph /  16.1 km/h 14 mph /  22.5 km/h 77 % 0 in /  0.0 mm
11:52 63.3 °F /  17.4 °C 56.3 °F /  13.5 °C 30.2 in /  1023.2 hPa SW 3 mph /  4.8 km/h 14 mph /  22.5 km/h 78 % 0 in /  0.0 mm
11:57 63.7 °F /  17.6 °C 55.9 °F /  13.3 °C 30.2 in /  1023.2 hPa SSE 11 mph /  17.7 km/h 14 mph /  22.5 km/h 76 % 0 in /  0.0 mm
12:02 63.7 °F /  17.6 °C 55.6 °F /  13.1 °C 30.2 in /  1023.2 hPa SW 8 mph /  12.9 km/h 14 mph /  22.5 km/h 75 % 0 in /  0.0 mm
12:12 64.4 °F /  18.0 °C 55.9 °F /  13.3 °C 30.2 in /  1023.2 hPa WSW 10 mph /  16.1 km/h 14 mph /  22.5 km/h 74 % 0 in /  0.0 mm
12:17 64.2 °F /  17.9 °C 55 °F /  12.8 °C 30.2 in /  1023.2 hPa SW 6 mph /  9.7 km/h 14 mph /  22.5 km/h 72 % 0 in /  0.0 mm
12:22 64.2 °F /  17.9 °C 54.3 °F /  12.4 °C 30.2 in /  1023.2 hPa West 2 mph /  3.2 km/h 14 mph /  22.5 km/h 70 % 0 in /  0.0 mm
12:27 64.4 °F /  18.0 °C 54.9 °F /  12.7 °C 30.2 in /  1023.2 hPa SSE 7 mph /  11.3 km/h 14 mph /  22.5 km/h 71 % 0 in /  0.0 mm
12:32 64.6 °F /  18.1 °C 53.8 °F /  12.1 °C 30.2 in /  1023.2 hPa SW 8 mph /  12.9 km/h 14 mph /  22.5 km/h 68 % 0 in /  0.0 mm
12:37 64.8 °F /  18.2 °C 54 °F /  12.2 °C 30.2 in /  1023.2 hPa SW 8 mph /  12.9 km/h 14 mph /  22.5 km/h 68 % 0 in /  0.0 mm
12:42 64.6 °F /  18.1 °C 51.6 °F /  10.9 °C 30.2 in /  1023.2 hPa WSW 5 mph /  8.0 km/h 15 mph /  24.1 km/h 63 % 0 in /  0.0 mm
12:47 64.2 °F /  17.9 °C 53.1 °F /  11.7 °C 30.2 in /  1023.2 hPa West 4 mph /  6.4 km/h 15 mph /  24.1 km/h 67 % 0 in /  0.0 mm
12:52 64.4 °F /  18.0 °C 54 °F /  12.2 °C 30.2 in /  1023.2 hPa WSW 10 mph /  16.1 km/h 14 mph /  22.5 km/h 69 % 0 in /  0.0 mm
12:57 64 °F /  17.8 °C 54.5 °F /  12.5 °C 30.2 in /  1023.6 hPa West 10 mph /  16.1 km/h 14 mph /  22.5 km/h 71 % 0 in /  0.0 mm
13:02 63.9 °F /  17.7 °C 55.4 °F /  13.0 °C 30.2 in /  1023.2 hPa WSW 7 mph /  11.3 km/h 16 mph /  25.7 km/h 74 % 0 in /  0.0 mm
13:12 64 °F /  17.8 °C 55.2 °F /  12.9 °C 30.2 in /  1023.2 hPa SW 2 mph /  3.2 km/h 16 mph /  25.7 km/h 73 % 0 in /  0.0 mm
13:17 64.6 °F /  18.1 °C 55.8 °F /  13.2 °C 30.2 in /  1023.2 hPa SW 2 mph /  3.2 km/h 13 mph /  20.9 km/h 73 % 0 in /  0.0 mm
13:22 64.8 °F /  18.2 °C 56.3 °F /  13.5 °C 30.2 in /  1023.2 hPa SW 12 mph /  19.3 km/h 14 mph /  22.5 km/h 74 % 0 in /  0.0 mm
13:32 64.8 °F /  18.2 °C 55.6 °F /  13.1 °C 30.2 in /  1023.2 hPa WSW 8 mph /  12.9 km/h 12 mph /  19.3 km/h 72 % 0 in /  0.0 mm
13:42 64.6 °F /  18.1 °C 55.4 °F /  13.0 °C 30.2 in /  1023.2 hPa SW 3 mph /  4.8 km/h 17 mph /  27.4 km/h 72 % 0 in /  0.0 mm
13:52 64.6 °F /  18.1 °C 55.8 °F /  13.2 °C 30.2 in /  1023.2 hPa SW 11 mph /  17.7 km/h 14 mph /  22.5 km/h 73 % 0 in /  0.0 mm
13:57 64.6 °F /  18.1 °C 56.1 °F /  13.4 °C 30.2 in /  1023.2 hPa WSW 7 mph /  11.3 km/h 14 mph /  22.5 km/h 74 % 0 in /  0.0 mm
14:02 64.8 °F /  18.2 °C 56.3 °F /  13.5 °C 30.2 in /  1023.2 hPa WSW 3 mph /  4.8 km/h 14 mph /  22.5 km/h 74 % 0 in /  0.0 mm
14:12 65.3 °F /  18.5 °C 56.8 °F /  13.8 °C 30.2 in /  1023.2 hPa WSW 5 mph /  8.0 km/h 14 mph /  22.5 km/h 74 % 0 in /  0.0 mm
14:17 65.5 °F /  18.6 °C 56.3 °F /  13.5 °C 30.2 in /  1023.2 hPa SW 5 mph /  8.0 km/h 13 mph /  20.9 km/h 72 % 0 in /  0.0 mm
14:22 65.8 °F /  18.8 °C 56.5 °F /  13.6 °C 30.2 in /  1023.2 hPa SW 7 mph /  11.3 km/h 13 mph /  20.9 km/h 72 % 0 in /  0.0 mm
14:32 66.6 °F /  19.2 °C 56.1 °F /  13.4 °C 30.2 in /  1023.2 hPa SSW 8 mph /  12.9 km/h 11 mph /  17.7 km/h 69 % 0 in /  0.0 mm
14:37 66.7 °F /  19.3 °C 56.3 °F /  13.5 °C 30.2 in /  1023.2 hPa WSW 5 mph /  8.0 km/h 12 mph /  19.3 km/h 69 % 0 in /  0.0 mm
14:42 67.1 °F /  19.5 °C 54.9 °F /  12.7 °C 30.2 in /  1023.2 hPa WSW 2 mph /  3.2 km/h 12 mph /  19.3 km/h 65 % 0 in /  0.0 mm
14:52 67.6 °F /  19.8 °C 55.4 °F /  13.0 °C 30.2 in /  1023.2 hPa West 3 mph /  4.8 km/h 13 mph /  20.9 km/h 65 % 0 in /  0.0 mm
15:02 67.5 °F /  19.7 °C 55.2 °F /  12.9 °C 30.2 in /  1023.2 hPa SW 10 mph /  16.1 km/h 17 mph /  27.4 km/h 65 % 0 in /  0.0 mm
15:07 67.5 °F /  19.7 °C 55.2 °F /  12.9 °C 30.2 in /  1023.2 hPa SW 3 mph /  4.8 km/h 17 mph /  27.4 km/h 65 % 0 in /  0.0 mm
15:12 67.8 °F /  19.9 °C 56.1 °F /  13.4 °C 30.2 in /  1022.9 hPa SW 5 mph /  8.0 km/h 15 mph /  24.1 km/h 66 % 0 in /  0.0 mm
15:17 68.2 °F /  20.1 °C 55.6 °F /  13.1 °C 30.2 in /  1023.2 hPa WSW 5 mph /  8.0 km/h 14 mph /  22.5 km/h 64 % 0 in /  0.0 mm
15:22 67.8 °F /  19.9 °C 55.6 °F /  13.1 °C 30.2 in /  1023.2 hPa WSW 8 mph /  12.9 km/h 14 mph /  22.5 km/h 65 % 0 in /  0.0 mm
15:27 67.8 °F /  19.9 °C 56.5 °F /  13.6 °C 30.2 in /  1022.9 hPa SW 11 mph /  17.7 km/h 14 mph /  22.5 km/h 67 % 0 in /  0.0 mm
15:32 67.8 °F /  19.9 °C 56.5 °F /  13.6 °C 30.2 in /  1022.9 hPa West 3 mph /  4.8 km/h 14 mph /  22.5 km/h 67 % 0 in /  0.0 mm
15:42 68 °F /  20.0 °C 57 °F /  13.9 °C 30.2 in /  1022.9 hPa SW 11 mph /  17.7 km/h 12 mph /  19.3 km/h 68 % 0 in /  0.0 mm
15:47 67.6 °F /  19.8 °C 56.7 °F /  13.7 °C 30.2 in /  1022.9 hPa SW 5 mph /  8.0 km/h 14 mph /  22.5 km/h 68 % 0 in /  0.0 mm
15:52 67.6 °F /  19.8 °C 56.3 °F /  13.5 °C 30.2 in /  1022.9 hPa West 11 mph /  17.7 km/h 17 mph /  27.4 km/h 67 % 0 in /  0.0 mm
15:57 67.8 °F /  19.9 °C 56.8 °F /  13.8 °C 30.2 in /  1022.9 hPa South 6 mph /  9.7 km/h 17 mph /  27.4 km/h 68 % 0 in /  0.0 mm
16:02 68.4 °F /  20.2 °C 56.5 °F /  13.6 °C 30.2 in /  1022.9 hPa West 2 mph /  3.2 km/h 14 mph /  22.5 km/h 66 % 0 in /  0.0 mm
16:12 68.7 °F /  20.4 °C 56.5 °F /  13.6 °C 30.2 in /  1022.6 hPa WSW 10 mph /  16.1 km/h 13 mph /  20.9 km/h 65 % 0 in /  0.0 mm
16:17 68.9 °F /  20.5 °C 56.3 °F /  13.5 °C 30.2 in /  1022.6 hPa West 6 mph /  9.7 km/h 14 mph /  22.5 km/h 64 % 0 in /  0.0 mm
16:22 68.9 °F /  20.5 °C 57 °F /  13.9 °C 30.2 in /  1022.6 hPa SW 11 mph /  17.7 km/h 14 mph /  22.5 km/h 66 % 0 in /  0.0 mm
16:32 68.5 °F /  20.3 °C 56.7 °F /  13.7 °C 30.2 in /  1022.6 hPa SW 6 mph /  9.7 km/h 15 mph /  24.1 km/h 66 % 0 in /  0.0 mm
16:37 68.4 °F /  20.2 °C 56.5 °F /  13.6 °C 30.2 in /  1022.6 hPa WSW 3 mph /  4.8 km/h 17 mph /  27.4 km/h 66 % 0 in /  0.0 mm
16:42 68.7 °F /  20.4 °C 56.8 °F /  13.8 °C 30.2 in /  1022.6 hPa SSW 2 mph /  3.2 km/h 17 mph /  27.4 km/h 66 % 0 in /  0.0 mm
16:52 68.5 °F /  20.3 °C 57.2 °F /  14.0 °C 30.2 in /  1022.6 hPa West 3 mph /  4.8 km/h 14 mph /  22.5 km/h 67 % 0 in /  0.0 mm
16:57 68.7 °F /  20.4 °C 56.8 °F /  13.8 °C 30.2 in /  1022.6 hPa West 5 mph /  8.0 km/h 14 mph /  22.5 km/h 66 % 0 in /  0.0 mm
17:02 68.7 °F /  20.4 °C 57.4 °F /  14.1 °C 30.2 in /  1022.6 hPa SSW 2 mph /  3.2 km/h 14 mph /  22.5 km/h 67 % 0 in /  0.0 mm
17:12 68.5 °F /  20.3 °C 57.2 °F /  14.0 °C 30.2 in /  1022.6 hPa WSW 8 mph /  12.9 km/h 14 mph /  22.5 km/h 67 % 0 in /  0.0 mm
17:17 68.5 °F /  20.3 °C 57.2 °F /  14.0 °C 30.2 in /  1022.6 hPa SW 5 mph /  8.0 km/h 14 mph /  22.5 km/h 67 % 0 in /  0.0 mm
17:22 68.9 °F /  20.5 °C 57.6 °F /  14.2 °C 30.2 in /  1022.6 hPa SW 7 mph /  11.3 km/h 14 mph /  22.5 km/h 67 % 0 in /  0.0 mm
17:32 68.5 °F /  20.3 °C 57.2 °F /  14.0 °C 30.2 in /  1022.6 hPa WNW 4 mph /  6.4 km/h 14 mph /  22.5 km/h 67 % 0 in /  0.0 mm
17:42 68.4 °F /  20.2 °C 57.4 °F /  14.1 °C 30.2 in /  1022.6 hPa SW 5 mph /  8.0 km/h 14 mph /  22.5 km/h 68 % 0 in /  0.0 mm
17:47 68.4 °F /  20.2 °C 57.7 °F /  14.3 °C 30.2 in /  1022.6 hPa SSW 4 mph /  6.4 km/h 14 mph /  22.5 km/h 69 % 0 in /  0.0 mm
17:52 68.4 °F /  20.2 °C 57.7 °F /  14.3 °C 30.2 in /  1022.6 hPa WNW 6 mph /  9.7 km/h 12 mph /  19.3 km/h 69 % 0 in /  0.0 mm
17:57 68.4 °F /  20.2 °C 57.4 °F /  14.1 °C 30.2 in /  1022.6 hPa West 3 mph /  4.8 km/h 12 mph /  19.3 km/h 68 % 0 in /  0.0 mm
18:02 68.4 °F /  20.2 °C 57.7 °F /  14.3 °C 30.2 in /  1022.6 hPa WSW 5 mph /  8.0 km/h 11 mph /  17.7 km/h 69 % 0 in /  0.0 mm
18:12 68.4 °F /  20.2 °C 57.7 °F /  14.3 °C 30.2 in /  1022.6 hPa SW 6 mph /  9.7 km/h 12 mph /  19.3 km/h 69 % 0 in /  0.0 mm
18:17 68.4 °F /  20.2 °C 57.7 °F /  14.3 °C 30.2 in /  1022.6 hPa SW 6 mph /  9.7 km/h 12 mph /  19.3 km/h 69 % 0 in /  0.0 mm
18:22 68.4 °F /  20.2 °C 57.4 °F /  14.1 °C 30.2 in /  1022.2 hPa West 7 mph /  11.3 km/h 11 mph /  17.7 km/h 68 % 0 in /  0.0 mm
18:32 68.4 °F /  20.2 °C 57.7 °F /  14.3 °C 30.2 in /  1022.6 hPa WSW 4 mph /  6.4 km/h 11 mph /  17.7 km/h 69 % 0 in /  0.0 mm
18:42 68.2 °F /  20.1 °C 57.2 °F /  14.0 °C 30.2 in /  1022.6 hPa SW 7 mph /  11.3 km/h 11 mph /  17.7 km/h 68 % 0 in /  0.0 mm
18:52 68.2 °F /  20.1 °C 58.1 °F /  14.5 °C 30.2 in /  1022.2 hPa WSW 8 mph /  12.9 km/h 10 mph /  16.1 km/h 70 % 0 in /  0.0 mm
18:57 68.2 °F /  20.1 °C 57.6 °F /  14.2 °C 30.2 in /  1022.2 hPa WSW 3 mph /  4.8 km/h 10 mph /  16.1 km/h 69 % 0 in /  0.0 mm
19:02 68.2 °F /  20.1 °C 58.1 °F /  14.5 °C 30.2 in /  1022.2 hPa WSW 4 mph /  6.4 km/h 10 mph /  16.1 km/h 70 % 0 in /  0.0 mm
19:12 68.2 °F /  20.1 °C 58.1 °F /  14.5 °C 30.2 in /  1022.2 hPa West 6 mph /  9.7 km/h 8 mph /  12.9 km/h 70 % 0 in /  0.0 mm
19:17 68.2 °F /  20.1 °C 58.1 °F /  14.5 °C 30.2 in /  1022.2 hPa SW 3 mph /  4.8 km/h 9 mph /  14.5 km/h 70 % 0 in /  0.0 mm
19:22 68 °F /  20.0 °C 58.3 °F /  14.6 °C 30.2 in /  1022.2 hPa WNW 6 mph /  9.7 km/h 9 mph /  14.5 km/h 71 % 0 in /  0.0 mm
19:27 68 °F /  20.0 °C 57.9 °F /  14.4 °C 30.2 in /  1022.2 hPa WSW 3 mph /  4.8 km/h 9 mph /  14.5 km/h 70 % 0 in /  0.0 mm
19:32 68 °F /  20.0 °C 58.3 °F /  14.6 °C 30.2 in /  1022.2 hPa WNW 2 mph /  3.2 km/h 7 mph /  11.3 km/h 71 % 0 in /  0.0 mm
19:42 67.8 °F /  19.9 °C 58.1 °F /  14.5 °C 30.2 in /  1022.2 hPa WSW 2 mph /  3.2 km/h 9 mph /  14.5 km/h 71 % 0 in /  0.0 mm
19:47 67.6 °F /  19.8 °C 57.9 °F /  14.4 °C 30.2 in /  1022.2 hPa WSW 3 mph /  4.8 km/h 9 mph /  14.5 km/h 71 % 0 in /  0.0 mm
19:52 67.6 °F /  19.8 °C 57.9 °F /  14.4 °C 30.2 in /  1022.2 hPa West 5 mph /  8.0 km/h 11 mph /  17.7 km/h 71 % 0 in /  0.0 mm
19:57 67.6 °F /  19.8 °C 58.3 °F /  14.6 °C 30.2 in /  1022.2 hPa West 4 mph /  6.4 km/h 11 mph /  17.7 km/h 72 % 0 in /  0.0 mm
20:02 67.6 °F /  19.8 °C 58.3 °F /  14.6 °C 30.2 in /  1022.2 hPa WNW 2 mph /  3.2 km/h 8 mph /  12.9 km/h 72 % 0 in /  0.0 mm
20:12 67.6 °F /  19.8 °C 58.3 °F /  14.6 °C 30.2 in /  1022.2 hPa WNW 5 mph /  8.0 km/h 7 mph /  11.3 km/h 72 % 0 in /  0.0 mm
20:17 67.5 °F /  19.7 °C 58.1 °F /  14.5 °C 30.2 in /  1022.2 hPa West 5 mph /  8.0 km/h 8 mph /  12.9 km/h 72 % 0 in /  0.0 mm
20:22 67.5 °F /  19.7 °C 58.5 °F /  14.7 °C 30.2 in /  1022.2 hPa SW 5 mph /  8.0 km/h 8 mph /  12.9 km/h 73 % 0 in /  0.0 mm
20:32 67.3 °F /  19.6 °C 58.3 °F /  14.6 °C 30.2 in /  1022.2 hPa West 5 mph /  8.0 km/h 11 mph /  17.7 km/h 73 % 0 in /  0.0 mm
20:37 67.1 °F /  19.5 °C 58.1 °F /  14.5 °C 30.2 in /  1022.2 hPa West 4 mph /  6.4 km/h 11 mph /  17.7 km/h 73 % 0 in /  0.0 mm
20:42 66.9 °F /  19.4 °C 58.3 °F /  14.6 °C 30.2 in /  1022.2 hPa West 3 mph /  4.8 km/h 11 mph /  17.7 km/h 74 % 0 in /  0.0 mm
20:52 66.6 °F /  19.2 °C 58.5 °F /  14.7 °C 30.2 in /  1022.2 hPa West 2 mph /  3.2 km/h 12 mph /  19.3 km/h 75 % 0 in /  0.0 mm
20:57 66.4 °F /  19.1 °C 58.6 °F /  14.8 °C 30.2 in /  1022.2 hPa WSW 1 mph /  1.6 km/h 11 mph /  17.7 km/h 76 % 0 in /  0.0 mm
21:02 66.2 °F /  19.0 °C 58.8 °F /  14.9 °C 30.2 in /  1022.6 hPa West 2 mph /  3.2 km/h 9 mph /  14.5 km/h 77 % 0 in /  0.0 mm
21:07 66 °F /  18.9 °C 58.6 °F /  14.8 °C 30.2 in /  1022.6 hPa West 1 mph /  1.6 km/h 6 mph /  9.7 km/h 77 % 0 in /  0.0 mm
21:12 65.8 °F /  18.8 °C 58.5 °F /  14.7 °C 30.2 in /  1022.6 hPa WSW 1 mph /  1.6 km/h 5 mph /  8.0 km/h 77 % 0 in /  0.0 mm
21:17 65.8 °F /  18.8 °C 58.5 °F /  14.7 °C 30.2 in /  1022.2 hPa Calm   5 mph /  8.0 km/h 77 % 0 in /  0.0 mm
21:22 65.8 °F /  18.8 °C 58.5 °F /  14.7 °C 30.2 in /  1022.6 hPa Calm   5 mph /  8.0 km/h 77 % 0 in /  0.0 mm
21:32 65.7 °F /  18.7 °C 58.6 °F /  14.8 °C 30.2 in /  1022.6 hPa Calm   2 mph /  3.2 km/h 78 % 0 in /  0.0 mm
21:42 65.7 °F /  18.7 °C 58.3 °F /  14.6 °C 30.2 in /  1022.6 hPa WSW 1 mph /  1.6 km/h 3 mph /  4.8 km/h 77 % 0 in /  0.0 mm
21:52 65.5 °F /  18.6 °C 58.5 °F /  14.7 °C 30.2 in /  1022.6 hPa Calm   3 mph /  4.8 km/h 78 % 0 in /  0.0 mm
21:57 65.5 °F /  18.6 °C 58.5 °F /  14.7 °C 30.2 in /  1022.6 hPa WSW 1 mph /  1.6 km/h 2 mph /  3.2 km/h 78 % 0 in /  0.0 mm
22:02 65.5 °F /  18.6 °C 58.5 °F /  14.7 °C 30.2 in /  1022.6 hPa West 1 mph /  1.6 km/h 2 mph /  3.2 km/h 78 % 0 in /  0.0 mm
22:07 65.5 °F /  18.6 °C 58.5 °F /  14.7 °C 30.2 in /  1022.6 hPa West 1 mph /  1.6 km/h 2 mph /  3.2 km/h 78 % 0 in /  0.0 mm
22:12 65.5 °F /  18.6 °C 58.5 °F /  14.7 °C 30.2 in /  1022.6 hPa WNW 1 mph /  1.6 km/h 2 mph /  3.2 km/h 78 % 0 in /  0.0 mm
22:22 65.5 °F /  18.6 °C 58.5 °F /  14.7 °C 30.2 in /  1022.6 hPa Calm   2 mph /  3.2 km/h 78 % 0 in /  0.0 mm
22:27 65.5 °F /  18.6 °C 58.5 °F /  14.7 °C 30.2 in /  1022.9 hPa Calm   1 mph /  1.6 km/h 78 % 0 in /  0.0 mm
22:32 65.5 °F /  18.6 °C 58.5 °F /  14.7 °C 30.2 in /  1022.6 hPa Calm   1 mph /  1.6 km/h 78 % 0 in /  0.0 mm
22:37 65.3 °F /  18.5 °C 58.3 °F /  14.6 °C 30.2 in /  1022.9 hPa Calm     78 % 0 in /  0.0 mm
22:42 65.1 °F /  18.4 °C 58.5 °F /  14.7 °C 30.2 in /  1022.6 hPa Calm     79 % 0 in /  0.0 mm
22:52 65.3 °F /  18.5 °C 58.3 °F /  14.6 °C 30.2 in /  1022.6 hPa SW 1 mph /  1.6 km/h 2 mph /  3.2 km/h 78 % 0 in /  0.0 mm
23:02 65.1 °F /  18.4 °C 58.5 °F /  14.7 °C 30.2 in /  1022.6 hPa SW 2 mph /  3.2 km/h 4 mph /  6.4 km/h 79 % 0 in /  0.0 mm
23:12 65.1 °F /  18.4 °C 58.5 °F /  14.7 °C 30.2 in /  1022.6 hPa SSW 1 mph /  1.6 km/h 4 mph /  6.4 km/h 79 % 0 in /  0.0 mm
23:17 64.9 °F /  18.3 °C 58.6 °F /  14.8 °C 30.2 in /  1022.6 hPa SSW 1 mph /  1.6 km/h 4 mph /  6.4 km/h 80 % 0 in /  0.0 mm
23:22 64.9 °F /  18.3 °C 58.6 °F /  14.8 °C 30.2 in /  1022.6 hPa SSW 3 mph /  4.8 km/h 3 mph /  4.8 km/h 80 % 0 in /  0.0 mm
23:32 64.8 °F /  18.2 °C 58.5 °F /  14.7 °C 30.2 in /  1022.6 hPa SW 1 mph /  1.6 km/h 3 mph /  4.8 km/h 80 % 0 in /  0.0 mm
23:37 64.9 °F /  18.3 °C 58.6 °F /  14.8 °C 30.2 in /  1022.6 hPa SW 1 mph /  1.6 km/h 3 mph /  4.8 km/h 80 % 0 in /  0.0 mm
23:42 64.9 °F /  18.3 °C 58.6 °F /  14.8 °C 30.2 in /  1022.6 hPa SW 1 mph /  1.6 km/h 3 mph /  4.8 km/h 80 % 0 in /  0.0 mm
23:47 64.8 °F /  18.2 °C 58.8 °F /  14.9 °C 30.2 in /  1022.6 hPa SW 2 mph /  3.2 km/h 3 mph /  4.8 km/h 81 % 0 in /  0.0 mm
23:52 64.8 °F /  18.2 °C 58.5 °F /  14.7 °C 30.2 in /  1022.6 hPa SW 1 mph /  1.6 km/h 3 mph /  4.8 km/h 80 % 0 in /  0.0 mm
23:57 64.8 °F /  18.2 °C 58.5 °F /  14.7 °C 30.2 in /  1022.6 hPa SW 1 mph /  1.6 km/h 4 mph /  6.4 km/h 80 % 0 in /  0.0 mm
Meteo18
Compliments of Weather Underground - 4 mb

Script developed by  Jim McMurry - jmcmurry@mwt.net Adapted for the template by  Wim van der Kuil - Leuven-Template.eu

You find our weather info also at:

European Weather Network

Weather Underground

Equipment we use:

Weather-station
Davis Vue

Weather-program
Meteohub

Weather-server
Raspberry PI 2 B+

Provider
1 and 1

Davis Vue

Meteohub

Raspberry PI 2 B+

1 and 1